Time;durP1;ratioP1;P1;durP2;ratioP2;P2;SDS_P1;SDS_P2;PMS_P1;PMS_P2;Temp;Humidity;BMP_temperature;BMP_pressure;BME280_temperature;BME280_humidity;BME280_pressure;Samples;Min_cycle;Max_cycle;Signal;HPM_P1;HPM_P2
2021/10/01 00:00:50;;;;;;;0.70;0.50;;;10.80;99.90;;;;;;5023793;28;20207;-69
2021/10/01 00:03:16;;;;;;;0.83;0.83;;;10.70;99.90;;;;;;5030503;28;20453;-68
2021/10/01 00:05:42;;;;;;;0.70;0.50;;;10.80;99.90;;;;;;5030002;28;20783;-69
2021/10/01 00:08:09;;;;;;;0.80;0.73;;;10.80;99.90;;;;;;5030636;28;20649;-69
2021/10/01 00:10:34;;;;;;;0.70;0.50;;;10.80;99.90;;;;;;5029545;28;20837;-69
2021/10/01 00:13:00;;;;;;;0.70;0.50;;;10.80;99.90;;;;;;5031841;28;20426;-69
2021/10/01 00:15:27;;;;;;;0.70;0.50;;;10.80;99.90;;;;;;5031071;28;20175;-69
2021/10/01 00:17:52;;;;;;;0.80;0.70;;;10.80;99.90;;;;;;5025421;28;20653;-69
2021/10/01 00:20:18;;;;;;;0.80;0.70;;;10.80;99.90;;;;;;5028508;28;20418;-69
2021/10/01 00:22:44;;;;;;;0.70;0.50;;;10.70;99.90;;;;;;5030215;28;20207;-69
2021/10/01 00:25:09;;;;;;;0.70;0.50;;;10.70;99.90;;;;;;5029329;28;20728;-69
2021/10/01 00:27:35;;;;;;;1.40;1.27;;;10.70;99.90;;;;;;5029801;28;20257;-69
2021/10/01 00:30:02;;;;;;;0.70;0.50;;;10.60;99.90;;;;;;5031603;28;20201;-69
2021/10/01 00:32:28;;;;;;;0.70;0.60;;;10.60;99.90;;;;;;5026310;28;20199;-69
2021/10/01 00:34:53;;;;;;;0.70;0.50;;;10.50;99.90;;;;;;5031284;28;20778;-69
2021/10/01 00:37:19;;;;;;;2.60;1.33;;;10.50;99.90;;;;;;5025435;28;20179;-70
2021/10/01 00:39:45;;;;;;;1.10;0.70;;;10.40;99.90;;;;;;5016294;28;20274;-69
2021/10/01 00:42:10;;;;;;;0.90;0.70;;;10.50;99.90;;;;;;5031237;28;20204;-69
2021/10/01 00:44:36;;;;;;;0.90;0.67;;;10.40;99.90;;;;;;5035004;28;20163;-69
2021/10/01 00:47:01;;;;;;;0.70;0.60;;;10.50;99.90;;;;;;5022196;28;20235;-69
2021/10/01 00:49:27;;;;;;;0.70;0.50;;;10.40;99.90;;;;;;5015235;28;20172;-69
2021/10/01 00:51:52;;;;;;;0.70;0.50;;;10.30;99.90;;;;;;5029207;28;20184;-69
2021/10/01 00:54:19;;;;;;;1.00;0.70;;;10.20;99.90;;;;;;5029800;28;20168;-69
2021/10/01 00:56:45;;;;;;;0.70;0.50;;;10.20;99.90;;;;;;5030405;28;20195;-69
2021/10/01 00:59:11;;;;;;;0.77;0.60;;;10.10;99.90;;;;;;5033245;28;20572;-69
2021/10/01 01:01:36;;;;;;;0.70;0.50;;;10.10;99.90;;;;;;5028906;28;20553;-69
2021/10/01 01:04:05;;;;;;;0.80;0.70;;;10.00;99.90;;;;;;5015195;28;20592;-69
2021/10/01 01:06:59;;;;;;;0.70;0.50;;;10.00;99.90;;;;;;5025827;28;20225;-69
2021/10/01 01:09:31;;;;;;;0.70;0.50;;;9.90;99.90;;;;;;5034824;28;20910;-69
2021/10/01 01:12:09;;;;;;;0.70;0.50;;;10.00;99.90;;;;;;5033594;28;20458;-69
2021/10/01 01:14:56;;;;;;;0.80;0.70;;;9.80;99.90;;;;;;5029977;28;20802;-69
2021/10/01 01:17:27;;;;;;;0.70;0.50;;;9.90;99.90;;;;;;5033902;28;20437;-68
2021/10/01 01:20:06;;;;;;;0.70;0.60;;;9.90;99.90;;;;;;5024697;28;20434;-69
2021/10/01 01:22:54;;;;;;;0.80;0.77;;;9.80;99.90;;;;;;5014498;28;20489;-68
2021/10/01 01:25:48;;;;;;;0.70;0.50;;;9.80;99.90;;;;;;5028710;28;20421;-69
2021/10/01 01:28:56;;;;;;;0.70;0.50;;;9.80;99.90;;;;;;5032907;28;20466;-69
2021/10/01 01:31:29;;;;;;;0.70;0.50;;;9.80;99.90;;;;;;5020072;28;21013;-68
2021/10/01 01:33:58;;;;;;;0.80;0.77;;;9.80;99.90;;;;;;5022342;28;20451;-69
2021/10/01 01:36:24;;;;;;;0.70;0.50;;;9.70;99.90;;;;;;5014042;28;20423;-69
2021/10/01 01:38:53;;;;;;;1.57;0.80;;;9.70;99.90;;;;;;5014334;28;20773;-69
2021/10/01 01:41:21;;;;;;;0.70;0.60;;;9.70;99.90;;;;;;5030467;28;20195;-69
2021/10/01 01:43:50;;;;;;;0.70;0.50;;;9.70;99.90;;;;;;5024648;28;20450;-69
2021/10/01 01:46:18;;;;;;;0.90;0.90;;;9.60;99.90;;;;;;5022003;28;20981;-69
2021/10/01 01:48:44;;;;;;;0.70;0.50;;;9.60;99.90;;;;;;5025193;28;20430;-69
2021/10/01 01:51:12;;;;;;;0.70;0.50;;;9.60;99.90;;;;;;5012831;28;20446;-69
2021/10/01 01:53:38;;;;;;;0.70;0.50;;;9.60;99.90;;;;;;5023055;28;20546;-69
2021/10/01 01:56:06;;;;;;;0.70;0.57;;;9.50;99.90;;;;;;5028677;28;20525;-69
2021/10/01 01:58:33;;;;;;;0.70;0.60;;;9.50;99.90;;;;;;5023207;28;20868;-69
2021/10/01 02:00:59;;;;;;;0.90;0.70;;;9.50;99.90;;;;;;5032350;28;20437;-69
2021/10/01 02:03:25;;;;;;;0.80;0.73;;;9.50;99.90;;;;;;5033506;28;20488;-69
2021/10/01 02:05:51;;;;;;;0.70;0.60;;;9.50;99.90;;;;;;5031507;28;20183;-69
2021/10/01 02:08:17;;;;;;;0.70;0.50;;;9.40;99.90;;;;;;5031935;28;20417;-69
2021/10/01 02:10:44;;;;;;;0.70;0.50;;;9.40;99.90;;;;;;5030695;28;20441;-69
2021/10/01 02:13:11;;;;;;;0.70;0.50;;;9.50;99.90;;;;;;5018226;28;20458;-69
2021/10/01 02:15:39;;;;;;;0.70;0.60;;;9.50;99.90;;;;;;5032554;28;20794;-69
2021/10/01 02:18:07;;;;;;;0.80;0.70;;;9.40;99.90;;;;;;5023014;28;20504;-69
2021/10/01 02:20:35;;;;;;;1.17;1.07;;;9.50;99.90;;;;;;5014668;28;20415;-70
2021/10/01 02:23:01;;;;;;;0.80;0.80;;;9.40;99.90;;;;;;5016217;28;20465;-69
2021/10/01 02:28:19;;;;;;;0.70;0.50;;;9.40;99.90;;;;;;5025923;28;20440;-70
2021/10/01 02:30:46;;;;;;;0.97;0.60;;;9.50;99.90;;;;;;5031367;28;20438;-69
2021/10/01 02:33:20;;;;;;;0.70;0.50;;;9.50;99.90;;;;;;5011726;28;20533;-68
2021/10/01 02:35:45;;;;;;;0.70;0.50;;;9.50;99.90;;;;;;5017097;28;20442;-69
2021/10/01 02:38:11;;;;;;;0.70;0.50;;;9.60;99.90;;;;;;5032503;28;20415;-69
2021/10/01 02:40:36;;;;;;;0.70;0.50;;;9.60;99.90;;;;;;5026219;28;20238;-69
2021/10/01 02:43:02;;;;;;;0.70;0.50;;;9.60;99.90;;;;;;5029117;28;20708;-69
2021/10/01 02:45:28;;;;;;;0.70;0.50;;;9.60;99.90;;;;;;5032092;28;20518;-69
2021/10/01 02:47:53;;;;;;;0.70;0.50;;;9.60;99.90;;;;;;5032793;28;20651;-69
2021/10/01 02:50:21;;;;;;;0.70;0.50;;;9.50;99.90;;;;;;5028713;28;20174;-68
2021/10/01 02:52:57;;;;;;;0.70;0.60;;;9.50;99.90;;;;;;5026674;28;20978;-69
2021/10/01 02:56:01;;;;;;;0.70;0.50;;;9.50;99.90;;;;;;5012722;28;20805;-69
2021/10/01 02:58:38;;;;;;;0.70;0.50;;;9.40;99.90;;;;;;5013422;28;20802;-69
2021/10/01 03:01:06;;;;;;;0.70;0.50;;;9.50;99.90;;;;;;5032087;28;20454;-68
2021/10/01 03:03:37;;;;;;;0.80;0.60;;;9.50;99.90;;;;;;5012632;28;20485;-69
2021/10/01 03:06:04;;;;;;;0.70;0.50;;;9.60;99.90;;;;;;5012339;28;20488;-70
2021/10/01 03:08:31;;;;;;;0.73;0.57;;;9.60;99.90;;;;;;5014557;28;20415;-70
2021/10/01 03:10:58;;;;;;;0.70;0.50;;;9.60;99.90;;;;;;5032329;28;20413;-69
2021/10/01 03:13:25;;;;;;;0.70;0.50;;;9.60;99.90;;;;;;5032234;28;20517;-69
2021/10/01 03:15:57;;;;;;;0.70;0.50;;;9.60;99.90;;;;;;5029267;28;20426;-70
2021/10/01 03:18:23;;;;;;;0.70;0.50;;;9.50;99.90;;;;;;5012507;28;20423;-69
2021/10/01 03:20:50;;;;;;;8.33;0.80;;;9.50;99.90;;;;;;5034385;28;20413;-68
2021/10/01 03:23:20;;;;;;;0.70;0.50;;;9.50;99.90;;;;;;5050768;28;20461;-68
2021/10/01 03:25:46;;;;;;;2.10;0.83;;;9.50;99.90;;;;;;5044839;28;20441;-68
2021/10/01 03:28:12;;;;;;;9.37;1.13;;;9.50;99.90;;;;;;5012437;28;20407;-69
2021/10/01 03:30:40;;;;;;;0.70;0.60;;;9.60;99.90;;;;;;5012351;28;20407;-69
2021/10/01 03:33:05;;;;;;;0.70;0.50;;;9.60;99.90;;;;;;5012241;28;20542;-68
2021/10/01 03:35:31;;;;;;;1.33;0.87;;;9.60;99.90;;;;;;5013819;28;20490;-70
2021/10/01 03:37:59;;;;;;;0.70;0.50;;;9.70;99.90;;;;;;5032048;28;20164;-69
2021/10/01 03:40:29;;;;;;;0.70;0.50;;;9.70;99.90;;;;;;5031820;28;20178;-69
2021/10/01 03:42:55;;;;;;;0.70;0.60;;;9.70;99.90;;;;;;5031766;28;21093;-68
2021/10/01 03:45:20;;;;;;;0.70;0.50;;;9.80;99.90;;;;;;5023354;28;20490;-69
2021/10/01 03:47:46;;;;;;;0.80;0.70;;;9.80;99.90;;;;;;5013500;28;20177;-69
2021/10/01 03:50:11;;;;;;;0.70;0.50;;;9.70;99.90;;;;;;5031706;28;20632;-69
2021/10/01 03:52:37;;;;;;;0.70;0.50;;;9.70;99.90;;;;;;5031719;28;20203;-70
2021/10/01 03:55:05;;;;;;;0.70;0.50;;;9.60;99.90;;;;;;5031336;28;20206;-69
2021/10/01 03:57:31;;;;;;;0.70;0.50;;;9.70;99.90;;;;;;5019160;28;20438;-68
2021/10/01 03:59:57;;;;;;;0.80;0.70;;;9.60;99.90;;;;;;5012947;28;20431;-68
2021/10/01 04:02:22;;;;;;;0.70;0.50;;;9.70;99.90;;;;;;5027032;28;20811;-69
2021/10/01 04:04:48;;;;;;;0.70;0.50;;;9.60;99.90;;;;;;5014512;28;20184;-68
2021/10/01 04:07:13;;;;;;;0.70;0.50;;;9.60;99.90;;;;;;5025363;28;20187;-69
2021/10/01 04:09:39;;;;;;;0.77;0.60;;;9.60;99.90;;;;;;5013555;28;20211;-69
2021/10/01 04:12:05;;;;;;;0.70;0.50;;;9.60;99.90;;;;;;5016096;28;20218;-70
2021/10/01 04:14:33;;;;;;;0.70;0.50;;;9.70;99.90;;;;;;5015474;28;20172;-70
2021/10/01 04:16:58;;;;;;;0.70;0.50;;;9.60;99.90;;;;;;5018630;28;21126;-70
2021/10/01 04:19:24;;;;;;;0.70;0.50;;;9.60;99.90;;;;;;5019062;28;20427;-70
2021/10/01 04:21:49;;;;;;;0.70;0.50;;;9.60;99.90;;;;;;5029662;28;20187;-68
2021/10/01 04:24:15;;;;;;;0.70;0.50;;;9.60;99.90;;;;;;5024601;28;20207;-69
2021/10/01 04:26:41;;;;;;;0.70;0.50;;;9.60;99.90;;;;;;5024060;28;20183;-69
2021/10/01 04:29:06;;;;;;;0.70;0.50;;;9.60;99.90;;;;;;5033799;28;20202;-69
2021/10/01 04:31:32;;;;;;;0.70;0.53;;;9.40;99.90;;;;;;5027466;28;20210;-68
2021/10/01 04:33:58;;;;;;;0.70;0.50;;;9.40;99.90;;;;;;5020230;28;20196;-68
2021/10/01 04:36:26;;;;;;;0.70;0.53;;;9.40;99.90;;;;;;5021711;28;20172;-69
2021/10/01 04:38:52;;;;;;;0.70;0.50;;;9.40;99.90;;;;;;5023877;28;20454;-69
2021/10/01 04:41:18;;;;;;;0.70;0.50;;;9.40;99.90;;;;;;5027266;28;20434;-69
2021/10/01 04:43:43;;;;;;;0.70;0.50;;;9.30;99.90;;;;;;5024530;28;20454;-68
2021/10/01 04:46:09;;;;;;;0.83;0.60;;;9.30;99.90;;;;;;5023318;28;20180;-69
2021/10/01 04:48:35;;;;;;;0.70;0.50;;;9.30;99.90;;;;;;5023407;28;20183;-69
2021/10/01 04:51:01;;;;;;;0.80;0.60;;;9.30;99.90;;;;;;5029495;28;20802;-69
2021/10/01 04:53:26;;;;;;;0.70;0.50;;;9.40;99.90;;;;;;5017365;28;20454;-69
2021/10/01 04:55:52;;;;;;;0.70;0.50;;;9.40;99.90;;;;;;5018337;28;20188;-69
2021/10/01 04:58:18;;;;;;;0.70;0.50;;;9.30;99.90;;;;;;5015088;28;20191;-69
2021/10/01 05:00:43;;;;;;;0.70;0.50;;;9.40;99.90;;;;;;5026487;28;20262;-69
2021/10/01 05:03:09;;;;;;;0.70;0.50;;;9.40;99.90;;;;;;5033051;28;20567;-69
2021/10/01 05:05:34;;;;;;;0.70;0.50;;;9.40;99.90;;;;;;5032277;28;20191;-69
2021/10/01 05:08:03;;;;;;;0.70;0.50;;;9.40;99.90;;;;;;5015124;28;20255;-69
2021/10/01 05:10:28;;;;;;;0.70;0.50;;;9.30;99.90;;;;;;5014766;28;20553;-68
2021/10/01 05:12:54;;;;;;;0.70;0.50;;;9.40;99.90;;;;;;5015229;28;20481;-69
2021/10/01 05:15:19;;;;;;;0.70;0.60;;;9.40;99.90;;;;;;5018076;28;20176;-68
2021/10/01 05:17:45;;;;;;;0.70;0.50;;;9.30;99.90;;;;;;5027416;28;20180;-68
2021/10/01 05:20:12;;;;;;;1.63;1.53;;;9.30;99.90;;;;;;5029634;28;20180;-69
2021/10/01 05:22:38;;;;;;;0.80;0.60;;;9.40;99.90;;;;;;5022641;28;20969;-68
2021/10/01 05:25:06;;;;;;;0.70;0.50;;;9.30;99.90;;;;;;5016064;28;20489;-69
2021/10/01 05:27:32;;;;;;;0.70;0.50;;;9.40;99.90;;;;;;5024614;28;20939;-69
2021/10/01 05:29:58;;;;;;;0.70;0.50;;;9.30;99.90;;;;;;5024884;28;20811;-69
2021/10/01 05:32:23;;;;;;;0.70;0.50;;;9.30;99.90;;;;;;5017190;28;20477;-69
2021/10/01 05:34:49;;;;;;;0.70;0.50;;;9.40;99.90;;;;;;5023591;28;20259;-69
2021/10/01 05:37:15;;;;;;;0.70;0.60;;;9.30;99.90;;;;;;5024943;28;20192;-69
2021/10/01 05:39:41;;;;;;;0.80;0.73;;;9.40;99.90;;;;;;5014218;28;20477;-68
2021/10/01 05:42:06;;;;;;;0.70;0.50;;;9.50;99.90;;;;;;5026196;28;20192;-69
2021/10/01 05:44:32;;;;;;;0.90;0.90;;;9.50;99.90;;;;;;5016716;28;20676;-69
2021/10/01 05:47:03;;;;;;;0.70;0.50;;;9.40;99.90;;;;;;5029753;28;20176;-70
2021/10/01 05:49:40;;;;;;;0.70;0.50;;;9.50;99.90;;;;;;5028281;28;20173;-68
2021/10/01 05:53:14;;;;;;;0.70;0.50;;;9.60;99.90;;;;;;5013737;28;20462;-69
2021/10/01 05:55:02;;;;;;;0.90;0.90;;;9.60;99.90;;;;;;5016788;28;20511;-68
2021/10/01 05:57:28;;;;;;;0.70;0.50;;;9.60;99.90;;;;;;5018963;28;20518;-70
2021/10/01 05:59:54;;;;;;;1.20;0.83;;;9.60;99.90;;;;;;5014992;28;20426;-69
2021/10/01 06:02:21;;;;;;;0.70;0.50;;;9.60;99.90;;;;;;5013657;28;20200;-68
2021/10/01 06:04:52;;;;;;;0.70;0.50;;;9.70;99.90;;;;;;5019198;28;20180;-69
2021/10/01 06:07:18;;;;;;;1.37;1.27;;;9.70;99.90;;;;;;5018894;28;20423;-68
2021/10/01 06:09:44;;;;;;;0.70;0.50;;;9.70;99.90;;;;;;5017686;28;20964;-68
2021/10/01 06:12:10;;;;;;;0.70;0.57;;;9.80;99.90;;;;;;5028238;28;20200;-68
2021/10/01 06:14:36;;;;;;;0.70;0.50;;;9.80;99.90;;;;;;5017860;28;20430;-69
2021/10/01 06:17:03;;;;;;;0.70;0.50;;;9.80;99.90;;;;;;5019541;28;20584;-69
2021/10/01 06:19:28;;;;;;;0.70;0.50;;;9.80;99.90;;;;;;5013318;28;20167;-69
2021/10/01 06:21:56;;;;;;;0.70;0.50;;;9.90;99.90;;;;;;5028168;28;20936;-70
2021/10/01 06:24:22;;;;;;;0.70;0.50;;;9.90;99.90;;;;;;5013710;28;20180;-68
2021/10/01 06:26:47;;;;;;;0.70;0.50;;;10.00;99.90;;;;;;5014290;28;21989;-69
2021/10/01 06:29:15;;;;;;;0.90;0.57;;;10.00;99.90;;;;;;5026905;28;20265;-70
2021/10/01 06:31:41;;;;;;;0.70;0.50;;;10.10;99.90;;;;;;5014894;28;20192;-70
2021/10/01 06:34:07;;;;;;;2.73;1.70;;;10.20;99.90;;;;;;5023527;28;20514;-69
2021/10/01 06:36:32;;;;;;;0.70;0.50;;;10.20;99.90;;;;;;5015611;28;20884;-69
2021/10/01 06:38:58;;;;;;;0.70;0.60;;;10.30;99.90;;;;;;5032097;28;20168;-69
2021/10/01 06:41:23;;;;;;;2.30;2.20;;;10.30;99.90;;;;;;5013690;28;20188;-68
2021/10/01 06:43:56;;;;;;;0.70;0.50;;;10.30;99.90;;;;;;5031520;28;20684;-68
2021/10/01 07:22:32;;;;;;;0.70;0.50;;;11.40;99.90;;;;;;5029998;28;20425;-69
2021/10/01 07:29:32;;;;;;;0.70;0.50;;;11.50;99.90;;;;;;5023800;28;20518;-69
2021/10/01 08:19:21;;;;;;;1.93;1.17;;;14.60;99.90;;;;;;5017604;28;20415;-69
2021/10/01 08:21:48;;;;;;;0.70;0.50;;;14.90;99.90;;;;;;5014619;28;21006;-69
2021/10/01 08:24:14;;;;;;;0.70;0.50;;;15.30;99.90;;;;;;5015685;28;20423;-69
2021/10/01 08:26:40;;;;;;;0.80;0.60;;;16.40;99.90;;;;;;5027399;28;20429;-70
2021/10/01 08:29:05;;;;;;;0.90;0.70;;;17.40;99.90;;;;;;5015617;28;20522;-69
2021/10/01 08:31:31;;;;;;;1.10;0.60;;;18.20;99.90;;;;;;5020518;28;20443;-69
2021/10/01 08:33:58;;;;;;;1.00;0.60;;;19.70;99.90;;;;;;5015756;28;20199;-69
2021/10/01 08:36:23;;;;;;;0.80;0.60;;;19.30;99.90;;;;;;5024850;28;20743;-69
2021/10/01 08:38:49;;;;;;;0.80;0.60;;;20.00;99.90;;;;;;5016073;28;20470;-69
2021/10/01 08:41:15;;;;;;;0.80;0.60;;;19.70;99.90;;;;;;5015409;28;20226;-69
2021/10/01 08:43:42;;;;;;;1.33;1.23;;;21.60;99.90;;;;;;5032420;28;20592;-67
2021/10/01 08:46:08;;;;;;;0.80;0.60;;;21.80;99.90;;;;;;5015008;28;20410;-66
2021/10/01 08:48:35;;;;;;;1.03;0.70;;;21.60;99.90;;;;;;5016385;28;20426;-68
2021/10/01 08:51:01;;;;;;;0.90;0.70;;;22.40;96.30;;;;;;5015757;28;20445;-67
2021/10/01 08:53:27;;;;;;;2.40;2.20;;;22.00;96.10;;;;;;5021036;28;20862;-66
2021/10/01 08:55:52;;;;;;;1.00;0.90;;;22.50;95.50;;;;;;5027465;28;20443;-67
2021/10/01 08:58:21;;;;;;;0.80;0.57;;;21.90;92.90;;;;;;5031004;28;20194;-67
2021/10/01 09:00:49;;;;;;;1.00;0.90;;;22.10;96.40;;;;;;5026405;28;20202;-66
2021/10/01 09:03:16;;;;;;;1.47;0.77;;;21.40;94.90;;;;;;5016078;28;20509;-67
2021/10/01 09:05:42;;;;;;;0.80;0.50;;;21.80;96.30;;;;;;5029899;28;20453;-66
2021/10/01 09:08:16;;;;;;;2.40;1.70;;;21.70;95.50;;;;;;5034321;28;20454;-66
2021/10/01 09:10:55;;;;;;;0.80;0.53;;;21.90;96.00;;;;;;5018720;28;20207;-66
2021/10/01 09:13:21;;;;;;;0.70;0.50;;;21.70;95.90;;;;;;5030448;28;20458;-68
2021/10/01 09:15:46;;;;;;;0.80;0.60;;;22.00;93.90;;;;;;5033742;28;20410;-68
2021/10/01 09:18:12;;;;;;;0.80;0.70;;;21.50;93.10;;;;;;5023927;28;20795;-66
2021/10/01 09:20:38;;;;;;;0.90;0.60;;;21.80;94.30;;;;;;5032848;28;20182;-67
2021/10/01 09:23:17;;;;;;;0.90;0.70;;;22.20;93.80;;;;;;5018652;28;20196;-70
2021/10/01 09:25:43;;;;;;;0.80;0.50;;;22.20;93.20;;;;;;5014650;28;20176;-70
2021/10/01 09:28:12;;;;;;;0.80;0.60;;;22.50;93.80;;;;;;5030720;28;20418;-69
2021/10/01 09:30:47;;;;;;;0.80;0.50;;;21.60;90.20;;;;;;5032449;28;20422;-69
2021/10/01 09:33:15;;;;;;;1.23;0.70;;;22.40;91.10;;;;;;5017029;28;20461;-71
2021/10/01 09:35:42;;;;;;;0.80;0.60;;;21.00;90.90;;;;;;5014296;28;20423;-69
2021/10/01 09:38:12;;;;;;;0.80;0.53;;;21.30;93.20;;;;;;5016553;28;20425;-70
2021/10/01 09:40:39;;;;;;;0.80;0.80;;;21.60;93.40;;;;;;5022888;28;20457;-70
2021/10/01 09:43:05;;;;;;;0.80;0.50;;;21.60;94.00;;;;;;5033265;28;20529;-68
2021/10/01 09:45:31;;;;;;;0.80;0.70;;;21.20;92.70;;;;;;5039102;28;20441;-69
2021/10/01 09:48:06;;;;;;;1.00;0.70;;;21.40;94.30;;;;;;5015899;28;20457;-69
2021/10/01 09:50:35;;;;;;;0.80;0.50;;;21.70;93.70;;;;;;5021754;28;20164;-69
2021/10/01 09:53:06;;;;;;;0.80;0.50;;;22.30;93.40;;;;;;5015301;28;20465;-69
2021/10/01 09:55:42;;;;;;;1.30;0.93;;;23.30;92.00;;;;;;5020757;28;20414;-71
2021/10/01 09:58:14;;;;;;;0.80;0.60;;;23.20;88.80;;;;;;5033521;28;20491;-70
2021/10/01 10:00:46;;;;;;;1.47;0.70;;;23.20;87.20;;;;;;5030115;28;20446;-67
2021/10/01 10:03:23;;;;;;;0.90;0.77;;;23.60;85.80;;;;;;5032092;28;20464;-69
2021/10/01 10:06:15;;;;;;;0.90;0.80;;;23.60;85.70;;;;;;5021990;28;20508;-69
2021/10/01 10:08:42;;;;;;;0.80;0.50;;;23.40;91.20;;;;;;5024482;28;20450;-69
2021/10/01 10:11:13;;;;;;;1.20;0.60;;;23.40;84.80;;;;;;5024293;28;20414;-70
2021/10/01 10:13:49;;;;;;;0.80;0.50;;;23.50;84.10;;;;;;5022731;28;20804;-67
2021/10/01 10:16:19;;;;;;;0.80;0.70;;;23.70;83.00;;;;;;5020030;28;20409;-67
2021/10/01 10:18:46;;;;;;;0.80;0.60;;;24.70;86.60;;;;;;5022059;28;20410;-67
2021/10/01 10:21:12;;;;;;;4.40;0.60;;;24.20;76.50;;;;;;5020558;28;20418;-67
2021/10/01 10:23:38;;;;;;;0.80;0.60;;;25.00;82.10;;;;;;5020949;28;20439;-66
2021/10/01 10:26:04;;;;;;;0.80;0.50;;;25.50;78.80;;;;;;5022891;28;20672;-67
2021/10/01 10:28:31;;;;;;;0.90;0.80;;;26.00;75.80;;;;;;5021860;28;20195;-69
2021/10/01 10:30:57;;;;;;;0.80;0.60;;;25.70;75.40;;;;;;5023638;28;20854;-67
2021/10/01 10:33:41;;;;;;;1.60;1.50;;;25.80;72.30;;;;;;5022349;28;20482;-68
2021/10/01 10:36:45;;;;;;;0.80;0.50;;;25.90;68.60;;;;;;5022181;28;20175;-67
2021/10/01 10:39:10;;;;;;;0.90;0.70;;;25.00;70.70;;;;;;5021984;28;20418;-67
2021/10/01 10:41:37;;;;;;;0.80;0.60;;;24.20;72.80;;;;;;5022288;28;20510;-67
2021/10/01 10:44:03;;;;;;;0.80;0.60;;;24.40;76.80;;;;;;5018485;28;20705;-67
2021/10/01 10:46:35;;;;;;;0.80;0.60;;;23.50;78.40;;;;;;5024536;28;20492;-66
2021/10/01 10:49:22;;;;;;;0.90;0.60;;;23.50;79.30;;;;;;5029201;28;20637;-67
2021/10/01 10:52:03;;;;;;;0.80;0.50;;;22.90;80.50;;;;;;5030509;28;20456;-69
2021/10/01 10:54:31;;;;;;;0.80;0.50;;;22.10;83.60;;;;;;5027848;28;20450;-71
2021/10/01 10:57:15;;;;;;;0.90;0.80;;;22.10;86.80;;;;;;5021352;28;20439;-69
2021/10/01 10:59:41;;;;;;;0.80;0.67;;;22.40;86.70;;;;;;5026904;28;20411;-69
2021/10/01 11:02:30;;;;;;;0.90;0.60;;;23.20;84.40;;;;;;5030765;28;20483;-70
2021/10/01 11:05:20;;;;;;;0.80;0.60;;;23.60;85.40;;;;;;5029293;28;20603;-66
2021/10/01 11:07:52;;;;;;;5.60;0.97;;;23.10;81.60;;;;;;5017816;28;20435;-67
2021/10/01 11:10:41;;;;;;;0.80;0.60;;;22.10;81.80;;;;;;5021301;28;20905;-67
2021/10/01 11:13:18;;;;;;;2.40;0.60;;;22.30;88.90;;;;;;5019431;28;20540;-69
2021/10/01 11:16:12;;;;;;;1.20;0.73;;;23.30;87.20;;;;;;5012284;28;20502;-70
2021/10/01 11:18:46;;;;;;;0.80;0.70;;;23.80;81.60;;;;;;5012737;28;20561;-67
2021/10/01 11:21:31;;;;;;;2.33;0.77;;;24.00;83.80;;;;;;5011401;28;20856;-67
2021/10/01 11:24:03;;;;;;;1.03;0.90;;;24.40;83.50;;;;;;5016181;28;20430;-67
2021/10/01 11:26:36;;;;;;;0.80;0.60;;;23.90;79.50;;;;;;5013218;28;20458;-67
2021/10/01 11:29:04;;;;;;;0.90;0.60;;;24.20;80.80;;;;;;5015542;28;20422;-67
2021/10/01 11:31:38;;;;;;;1.20;1.10;;;24.40;80.00;;;;;;5031592;28;20464;-66
2021/10/01 11:34:04;;;;;;;1.53;1.10;;;26.30;76.90;;;;;;5025357;28;20434;-67
2021/10/01 11:36:31;;;;;;;0.80;0.60;;;25.10;75.60;;;;;;5029900;28;20509;-67
2021/10/01 11:39:14;;;;;;;0.83;0.60;;;25.20;80.30;;;;;;5019284;28;20763;-70
2021/10/01 11:41:46;;;;;;;0.80;0.50;;;25.30;76.30;;;;;;5013403;28;20422;-66
2021/10/01 11:44:13;;;;;;;0.90;0.70;;;26.00;74.60;;;;;;5019453;28;20422;-67
2021/10/01 11:46:48;;;;;;;0.90;0.80;;;26.60;76.60;;;;;;5029924;28;20422;-68
2021/10/01 11:49:17;;;;;;;0.80;0.50;;;26.20;71.70;;;;;;5018124;28;20422;-67
2021/10/01 11:52:04;;;;;;;0.80;0.60;;;26.50;72.00;;;;;;5012243;28;20554;-68
2021/10/01 11:54:30;;;;;;;0.90;0.70;;;25.00;69.50;;;;;;5014102;28;20423;-67
2021/10/01 11:57:00;;;;;;;1.00;0.80;;;26.30;77.40;;;;;;5027955;28;20453;-67
2021/10/01 11:59:57;;;;;;;0.80;0.70;;;27.00;73.40;;;;;;5030240;28;20509;-67
2021/10/01 12:02:27;;;;;;;1.10;0.70;;;28.30;73.00;;;;;;5029900;28;20444;-68
2021/10/01 12:04:53;;;;;;;0.80;0.57;;;28.00;66.20;;;;;;5031363;28;20513;-66
2021/10/01 12:07:18;;;;;;;2.30;2.10;;;28.50;63.80;;;;;;5013005;28;20526;-67
2021/10/01 12:10:04;;;;;;;1.00;0.90;;;28.90;60.10;;;;;;5027948;28;20179;-68
2021/10/01 12:12:30;;;;;;;0.83;0.70;;;28.10;60.20;;;;;;5031230;28;20684;-67
2021/10/01 12:14:56;;;;;;;0.83;0.60;;;27.90;61.30;;;;;;5023503;28;20423;-68
2021/10/01 12:17:22;;;;;;;0.80;0.60;;;28.30;60.10;;;;;;5030312;28;20211;-67
2021/10/01 12:19:47;;;;;;;0.80;0.57;;;28.30;59.50;;;;;;5013283;28;20259;-67
2021/10/01 12:22:17;;;;;;;1.40;0.67;;;29.10;59.40;;;;;;5010552;28;20443;-67
2021/10/01 12:24:43;;;;;;;1.67;1.33;;;27.50;60.70;;;;;;5011491;28;20184;-70
2021/10/01 12:27:09;;;;;;;0.90;0.60;;;26.80;59.70;;;;;;5027890;28;20433;-69
2021/10/01 12:29:42;;;;;;;0.80;0.60;;;26.50;60.00;;;;;;5029744;28;20418;-70
2021/10/01 12:32:08;;;;;;;2.27;0.63;;;26.50;62.10;;;;;;5031208;28;20200;-71
2021/10/01 12:34:41;;;;;;;1.20;0.90;;;26.20;60.50;;;;;;5029909;28;20425;-67
2021/10/01 12:37:11;;;;;;;0.80;0.60;;;27.10;61.60;;;;;;5027378;28;20322;-68
2021/10/01 12:39:39;;;;;;;0.83;0.63;;;28.00;58.50;;;;;;5017508;28;20418;-69
2021/10/01 12:42:07;;;;;;;0.90;0.60;;;27.60;55.50;;;;;;5015313;28;20958;-67
2021/10/01 12:44:39;;;;;;;0.83;0.60;;;28.10;57.00;;;;;;5027722;28;20969;-67
2021/10/01 12:47:20;;;;;;;0.80;0.70;;;27.90;54.80;;;;;;5030694;28;20449;-67
2021/10/01 12:50:01;;;;;;;0.87;0.77;;;27.60;54.40;;;;;;5026025;28;20471;-67
2021/10/01 12:52:28;;;;;;;0.80;0.67;;;26.80;53.50;;;;;;5026073;28;20937;-67
2021/10/01 12:55:01;;;;;;;1.00;0.70;;;26.80;55.50;;;;;;5023102;28;20513;-67
2021/10/01 12:57:34;;;;;;;1.10;0.60;;;27.10;54.90;;;;;;5013728;28;20438;-68
2021/10/01 13:00:03;;;;;;;0.80;0.60;;;27.10;54.60;;;;;;5015463;28;20427;-69
2021/10/01 13:02:34;;;;;;;0.80;0.50;;;26.30;53.90;;;;;;5030943;28;21141;-70
2021/10/01 13:05:22;;;;;;;0.80;0.50;;;25.50;54.50;;;;;;5021583;28;20418;-68
2021/10/01 13:07:56;;;;;;;1.00;0.90;;;25.60;56.30;;;;;;5027184;28;20531;-68
2021/10/01 13:10:31;;;;;;;0.80;0.50;;;25.50;55.60;;;;;;5033033;28;20497;-69
2021/10/01 13:13:08;;;;;;;0.80;0.53;;;24.90;55.70;;;;;;5031941;28;20457;-68
2021/10/01 13:15:33;;;;;;;0.80;0.50;;;24.50;56.70;;;;;;5032401;28;20548;-67
2021/10/01 13:17:59;;;;;;;0.80;0.60;;;25.00;57.90;;;;;;5020753;28;20853;-70
2021/10/01 13:20:26;;;;;;;0.80;0.60;;;24.40;57.20;;;;;;5014731;28;20172;-70
2021/10/01 13:23:08;;;;;;;0.80;0.50;;;24.40;57.20;;;;;;5015761;28;20219;-69
2021/10/01 13:25:44;;;;;;;0.80;0.50;;;25.10;56.90;;;;;;5017043;28;20427;-69
2021/10/01 13:28:09;;;;;;;0.87;0.70;;;25.40;56.40;;;;;;5014651;28;20419;-67
2021/10/01 13:30:35;;;;;;;0.80;0.50;;;25.00;55.60;;;;;;5014528;28;20553;-66
2021/10/01 13:33:03;;;;;;;0.80;0.70;;;24.80;56.00;;;;;;5016966;28;20289;-67
2021/10/01 13:35:28;;;;;;;0.80;0.50;;;24.30;56.40;;;;;;5019901;28;20303;-70
2021/10/01 13:37:54;;;;;;;0.80;0.80;;;22.90;55.70;;;;;;5014428;28;20498;-71
2021/10/01 13:40:22;;;;;;;0.80;0.50;;;22.90;58.50;;;;;;5028627;28;20604;-69
2021/10/01 13:42:47;;;;;;;0.80;0.50;;;22.40;59.10;;;;;;5014492;28;20453;-69
2021/10/01 13:45:15;;;;;;;0.80;0.50;;;20.90;58.30;;;;;;5016360;28;21161;-69
2021/10/01 13:47:41;;;;;;;0.90;0.60;;;21.00;61.20;;;;;;5014845;28;20546;-70
2021/10/01 13:50:08;;;;;;;0.80;0.50;;;20.80;63.50;;;;;;5032525;28;20423;-70
2021/10/01 13:52:34;;;;;;;0.80;0.50;;;20.50;63.10;;;;;;5025282;28;20458;-70
2021/10/01 13:55:00;;;;;;;0.80;0.50;;;20.50;66.30;;;;;;5023918;28;20983;-71
2021/10/01 13:57:25;;;;;;;0.90;0.60;;;20.30;64.20;;;;;;5026588;28;20383;-69
2021/10/01 13:59:51;;;;;;;0.77;0.53;;;20.20;66.50;;;;;;5014068;28;20181;-68
2021/10/01 14:02:20;;;;;;;0.70;0.50;;;20.20;69.00;;;;;;5014958;28;20188;-69
2021/10/01 14:04:46;;;;;;;0.80;0.60;;;20.00;69.30;;;;;;5019000;28;20429;-69
2021/10/01 14:07:12;;;;;;;1.00;0.60;;;20.20;72.40;;;;;;5013741;28;20426;-68
2021/10/01 14:09:37;;;;;;;0.73;0.50;;;20.20;72.40;;;;;;5013842;28;20458;-70
2021/10/01 14:12:03;;;;;;;0.80;0.60;;;20.10;73.60;;;;;;5020664;28;20196;-69
2021/10/01 14:14:29;;;;;;;1.00;0.70;;;20.20;73.80;;;;;;5028431;28;20511;-69
2021/10/01 14:16:54;;;;;;;1.20;0.90;;;20.40;75.40;;;;;;5013313;28;20522;-69
2021/10/01 14:19:20;;;;;;;0.80;0.60;;;20.50;72.60;;;;;;5027830;28;20255;-69
2021/10/01 14:21:45;;;;;;;0.80;0.50;;;20.70;76.50;;;;;;5032787;28;20258;-70
2021/10/01 14:24:11;;;;;;;0.80;0.80;;;21.00;76.40;;;;;;5029424;28;20179;-70
2021/10/01 14:26:37;;;;;;;0.80;0.50;;;21.00;73.50;;;;;;5020257;28;20172;-70
2021/10/01 14:29:04;;;;;;;0.80;0.60;;;20.80;76.40;;;;;;5032927;28;20429;-71
2021/10/01 14:31:30;;;;;;;0.70;0.50;;;20.70;77.60;;;;;;5024902;28;20197;-72